createdAt,value
2023-05-12T00:08:20.002Z,12.72
2023-05-12T00:10:47.366Z,13.28
2023-05-12T00:13:15.072Z,12.74
2023-05-12T00:15:43.914Z,12.83
2023-05-12T00:18:11.011Z,13.06
2023-05-12T00:20:38.661Z,12.85
2023-05-12T00:23:05.778Z,13.27
2023-05-12T00:25:33.322Z,12.85
2023-05-12T00:28:00.503Z,13.23
2023-05-12T00:30:27.980Z,12.80
2023-05-12T00:32:56.621Z,13.25
2023-05-12T00:35:23.856Z,13.26
2023-05-12T00:37:50.996Z,13.24
2023-05-12T00:40:18.981Z,13.17
2023-05-12T00:42:46.065Z,12.76
2023-05-12T00:45:13.430Z,13.22
2023-05-12T00:47:40.602Z,13.25
2023-05-12T00:50:09.825Z,13.27
2023-05-12T00:55:33.519Z,12.59
2023-05-12T00:58:00.871Z,13.27
2023-05-12T01:00:27.749Z,13.25
2023-05-12T01:02:58.636Z,12.77
2023-05-12T01:05:32.141Z,13.25
2023-05-12T01:08:01.523Z,12.82
2023-05-12T01:10:28.581Z,12.61
2023-05-12T01:12:55.855Z,13.03
2023-05-12T01:15:23.516Z,12.91
2023-05-12T01:17:57.640Z,12.43
2023-05-12T01:20:28.803Z,12.84
2023-05-12T01:22:58.418Z,12.73
2023-05-12T01:25:29.062Z,12.48
2023-05-12T01:27:57.919Z,12.56
2023-05-12T01:30:26.096Z,12.82
2023-05-12T01:32:53.741Z,12.87
2023-05-12T01:35:20.982Z,12.40
2023-05-12T01:37:48.255Z,12.59
2023-05-12T01:40:16.469Z,12.64
2023-05-12T01:42:43.849Z,12.08
2023-05-12T01:45:40.954Z,12.47
2023-05-12T01:48:09.560Z,12.63
2023-05-12T01:50:36.476Z,12.22
2023-05-12T01:53:04.016Z,12.66
2023-05-12T01:55:31.460Z,12.68
2023-05-12T01:57:58.581Z,12.20
2023-05-12T02:00:25.631Z,12.49
2023-05-12T02:02:53.443Z,12.52
2023-05-12T02:05:22.272Z,12.52
2023-05-12T02:07:49.519Z,12.47
2023-05-12T02:10:16.912Z,12.47
2023-05-12T02:12:45.035Z,12.21
2023-05-12T02:15:12.006Z,12.03
2023-05-12T02:17:39.839Z,12.43
2023-05-12T02:20:08.425Z,12.42
2023-05-12T02:22:37.407Z,12.38
2023-05-12T02:25:05.210Z,11.98
2023-05-12T02:27:32.597Z,12.36
2023-05-12T02:29:59.668Z,12.20
2023-05-12T02:32:30.195Z,12.14
2023-05-12T02:34:57.278Z,12.10
2023-05-12T02:37:24.546Z,12.23
2023-05-12T02:39:52.920Z,12.48
2023-05-12T02:42:22.295Z,12.16
2023-05-12T02:44:49.254Z,12.21
2023-05-12T02:47:16.657Z,12.22
2023-05-12T02:49:43.671Z,12.18
2023-05-12T02:52:11.327Z,12.23
2023-05-12T02:54:38.416Z,12.64
2023-05-12T02:57:07.603Z,12.17
2023-05-12T02:59:34.462Z,12.57
2023-05-12T03:02:01.772Z,12.10
2023-05-12T03:04:29.135Z,12.08
2023-05-12T03:06:57.195Z,12.07
2023-05-12T03:09:24.216Z,12.10
2023-05-12T03:11:51.517Z,11.95
2023-05-12T03:14:20.172Z,12.51
2023-05-12T03:16:47.600Z,12.17
2023-05-12T03:19:14.720Z,12.47
2023-05-12T03:21:44.780Z,12.03
2023-05-12T03:24:15.459Z,12.07
2023-05-12T03:26:42.784Z,12.45
2023-05-12T03:29:09.725Z,12.06
2023-05-12T03:31:40.121Z,11.94
2023-05-12T03:34:07.165Z,11.83
2023-05-12T03:36:34.826Z,12.09
2023-05-12T03:39:03.111Z,11.86
2023-05-12T03:41:30.616Z,11.84
2023-05-12T03:43:57.610Z,12.24
2023-05-12T03:46:25.533Z,11.77
2023-05-12T03:48:54.065Z,11.87
2023-05-12T03:51:21.383Z,11.87
2023-05-12T03:53:48.341Z,11.55
2023-05-12T03:56:15.798Z,12.02
2023-05-12T03:58:42.796Z,11.85
2023-05-12T04:01:10.366Z,11.83
2023-05-12T04:03:37.493Z,11.77
2023-05-12T04:06:06.601Z,11.76
2023-05-12T04:08:33.806Z,12.18
2023-05-12T04:11:04.422Z,11.61
2023-05-12T04:13:31.971Z,11.78
2023-05-12T04:16:00.198Z,11.69
2023-05-12T04:18:28.285Z,11.88
2023-05-12T04:20:59.099Z,11.75
2023-05-12T04:23:27.594Z,11.93
2023-05-12T04:25:55.039Z,12.00
2023-05-12T04:28:22.161Z,11.95
2023-05-12T04:30:49.480Z,12.36
2023-05-12T04:33:16.570Z,12.15
2023-05-12T04:35:43.904Z,12.30
2023-05-12T04:38:10.947Z,11.87
2023-05-12T04:40:39.565Z,11.95
2023-05-12T04:43:08.957Z,12.42
2023-05-12T04:45:36.180Z,12.07
2023-05-12T04:48:03.373Z,12.15
2023-05-12T04:50:30.642Z,12.52
2023-05-12T04:52:57.830Z,12.12
2023-05-12T04:55:25.519Z,12.43
2023-05-12T04:57:53.906Z,12.59
2023-05-12T05:00:21.419Z,12.20
2023-05-12T05:02:48.604Z,12.18
2023-05-12T05:05:16.224Z,12.20
2023-05-12T05:07:43.317Z,12.23
2023-05-12T05:10:11.085Z,12.57
2023-05-12T05:12:38.220Z,12.25
2023-05-12T05:15:09.836Z,12.22
2023-05-12T05:17:36.985Z,12.28
2023-05-12T05:20:11.371Z,12.30
2023-05-12T05:22:39.861Z,12.09
2023-05-12T05:25:08.383Z,12.08
2023-05-12T05:27:35.422Z,12.75
2023-05-12T05:30:02.741Z,12.79
2023-05-12T05:32:31.161Z,12.30
2023-05-12T05:34:58.416Z,12.27
2023-05-12T05:37:25.745Z,12.73
2023-05-12T05:39:53.019Z,12.75
2023-05-12T05:42:20.607Z,12.59
2023-05-12T05:44:47.767Z,12.34
2023-05-12T05:47:14.920Z,12.43
2023-05-12T05:49:43.992Z,12.41
2023-05-12T05:52:11.091Z,12.91
2023-05-12T05:54:38.598Z,12.62
2023-05-12T05:57:06.640Z,12.54
2023-05-12T05:59:33.899Z,12.89
2023-05-12T06:02:01.170Z,12.70
2023-05-12T06:04:29.025Z,12.72
2023-05-12T06:06:57.447Z,12.71
2023-05-12T06:09:24.836Z,13.09
2023-05-12T06:11:51.767Z,13.12
2023-05-12T06:14:19.134Z,12.17
2023-05-12T06:16:46.360Z,12.76
2023-05-12T06:19:13.777Z,13.16
2023-05-12T06:21:40.888Z,12.69
2023-05-12T06:24:09.566Z,12.72
2023-05-12T06:26:36.701Z,13.26
2023-05-12T06:29:06.557Z,12.66
2023-05-12T06:31:33.821Z,12.76
2023-05-12T06:34:01.234Z,13.28
2023-05-12T06:36:28.921Z,12.98
2023-05-12T06:38:56.277Z,12.50
2023-05-12T06:41:25.320Z,12.83
2023-05-12T06:43:52.848Z,12.89
2023-05-12T06:46:19.848Z,13.29
2023-05-12T06:48:47.312Z,12.87
2023-05-12T06:51:14.318Z,13.15
2023-05-12T06:53:41.993Z,12.89
2023-05-12T06:56:09.471Z,12.85
2023-05-12T06:58:38.281Z,12.51
2023-05-12T07:01:06.027Z,13.06
2023-05-12T07:03:33.604Z,13.50
2023-05-12T07:06:00.986Z,13.10
2023-05-12T07:08:28.435Z,13.16
2023-05-12T07:10:55.527Z,13.37
2023-05-12T07:13:22.870Z,13.55
2023-05-12T07:15:51.330Z,13.17
2023-05-12T07:18:18.755Z,13.66
2023-05-12T07:20:46.596Z,13.46
2023-05-12T07:23:14.122Z,13.35
2023-05-12T07:25:41.214Z,13.77
2023-05-12T07:28:08.494Z,13.40
2023-05-12T07:30:36.404Z,13.58
2023-05-12T07:33:05.466Z,13.53
2023-05-12T07:35:32.550Z,13.90
2023-05-12T07:38:03.284Z,13.87
2023-05-12T07:40:30.375Z,13.53
2023-05-12T07:42:57.997Z,13.82
2023-05-12T07:45:25.233Z,13.55
2023-05-12T07:47:52.528Z,13.99
2023-05-12T07:50:21.457Z,13.59
2023-05-12T07:52:49.566Z,13.75
2023-05-12T07:55:17.149Z,13.78
2023-05-12T07:57:44.688Z,13.90
2023-05-12T08:00:13.441Z,13.79
2023-05-12T08:02:42.081Z,14.30
2023-05-12T08:05:12.643Z,13.82
2023-05-12T08:07:43.705Z,13.91
2023-05-12T08:10:12.993Z,14.36
2023-05-12T08:12:40.780Z,14.13
2023-05-12T08:15:08.639Z,14.43
2023-05-12T08:17:36.091Z,14.42
2023-05-12T08:20:06.642Z,14.47
2023-05-12T08:22:34.216Z,14.14
2023-05-12T08:25:02.535Z,14.40
2023-05-12T08:27:29.897Z,14.71
2023-05-12T08:29:56.947Z,14.84
2023-05-12T08:32:24.600Z,14.85
2023-05-12T08:34:51.715Z,14.48
2023-05-12T08:37:19.126Z,14.48
2023-05-12T08:39:46.278Z,14.84
2023-05-12T08:42:28.619Z,15.03
2023-05-12T08:44:56.103Z,14.59
2023-05-12T08:47:25.785Z,15.07
2023-05-12T08:49:59.783Z,15.02
2023-05-12T08:52:29.290Z,14.61
2023-05-12T08:54:57.000Z,14.64
2023-05-12T08:57:28.166Z,15.06
2023-05-12T08:59:59.214Z,14.64
2023-05-12T09:02:37.786Z,15.17
2023-05-12T09:05:09.286Z,14.80
2023-05-12T09:07:39.844Z,14.96
2023-05-12T09:10:19.673Z,15.31
2023-05-12T09:13:00.832Z,15.29
2023-05-12T09:15:34.083Z,15.18
2023-05-12T09:18:01.561Z,15.14
2023-05-12T09:20:31.877Z,15.28
2023-05-12T09:23:00.249Z,15.22
2023-05-12T09:25:27.316Z,15.62
2023-05-12T09:27:59.085Z,15.39
2023-05-12T09:30:30.246Z,15.92
2023-05-12T09:33:07.134Z,15.95
2023-05-12T09:35:38.637Z,15.42
2023-05-12T09:38:07.473Z,15.78
2023-05-12T09:40:34.532Z,15.16
2023-05-12T09:43:03.784Z,15.28
2023-05-12T09:45:33.926Z,15.71
2023-05-12T09:48:09.602Z,15.50
2023-05-12T09:50:47.421Z,15.68
2023-05-12T09:53:17.873Z,15.72
2023-05-12T09:55:45.176Z,15.30
2023-05-12T09:58:16.429Z,15.58
2023-05-12T10:01:12.840Z,15.54
2023-05-12T10:03:33.871Z,15.06
2023-05-12T10:06:03.825Z,15.21
2023-05-12T10:08:37.666Z,15.25
2023-05-12T10:11:06.463Z,15.26
2023-05-12T10:13:35.484Z,15.38
2023-05-12T10:16:03.280Z,15.44
2023-05-12T10:18:33.338Z,15.87
2023-05-12T10:21:01.280Z,15.16
2023-05-12T10:23:29.377Z,15.34
2023-05-12T10:26:01.993Z,15.48
2023-05-12T10:28:29.756Z,15.48
2023-05-12T10:30:58.997Z,15.39
2023-05-12T10:33:27.625Z,15.42
2023-05-12T10:35:54.842Z,15.69
2023-05-12T10:38:22.282Z,15.83
2023-05-12T10:40:53.709Z,15.54
2023-05-12T10:43:23.169Z,15.45
2023-05-12T10:46:10.680Z,16.04
2023-05-12T10:48:50.749Z,16.01
2023-05-12T10:51:21.020Z,16.03
2023-05-12T10:53:54.843Z,15.74
2023-05-12T10:56:24.567Z,15.80
2023-05-12T10:59:09.828Z,15.77
2023-05-12T11:01:39.745Z,15.79
2023-05-12T11:04:13.149Z,16.33
2023-05-12T11:06:41.347Z,16.13
2023-05-12T11:09:09.284Z,16.56
2023-05-12T11:11:36.882Z,16.51
2023-05-12T11:14:04.501Z,16.70
2023-05-12T11:16:31.715Z,16.28
2023-05-12T11:19:04.673Z,16.61
2023-05-12T11:21:32.959Z,16.14
2023-05-12T11:24:01.060Z,16.15
2023-05-12T11:26:28.414Z,16.46
2023-05-12T11:28:57.111Z,15.94
2023-05-12T11:31:25.082Z,16.31
2023-05-12T11:34:12.012Z,16.15
2023-05-12T11:36:40.680Z,16.12
2023-05-12T11:39:13.843Z,16.24
2023-05-12T11:41:42.670Z,16.12
2023-05-12T11:44:14.976Z,16.11
2023-05-12T11:46:42.637Z,16.09
2023-05-12T11:49:12.736Z,15.87
2023-05-12T11:51:43.182Z,16.28
2023-05-12T11:54:10.854Z,16.88
2023-05-12T11:56:47.338Z,16.25
2023-05-12T11:59:25.280Z,16.59
2023-05-12T12:01:52.258Z,16.62
2023-05-12T12:04:31.635Z,16.59
2023-05-12T12:06:58.886Z,16.26
2023-05-12T12:09:31.403Z,16.66
2023-05-12T12:11:58.792Z,16.83
2023-05-12T12:14:30.149Z,16.81
2023-05-12T12:16:57.353Z,17.31
2023-05-12T12:19:29.136Z,17.13
2023-05-12T12:21:56.737Z,17.38
2023-05-12T12:24:27.072Z,17.11
2023-05-12T12:26:54.137Z,16.82
2023-05-12T12:29:23.797Z,17.20
2023-05-12T12:31:50.817Z,17.40
2023-05-12T12:34:18.355Z,17.25
2023-05-12T12:36:49.378Z,17.71
2023-05-12T12:39:19.032Z,17.36
2023-05-12T12:41:48.118Z,17.33
2023-05-12T12:44:15.771Z,17.30
2023-05-12T12:46:42.878Z,17.15
2023-05-12T12:49:10.383Z,17.30
2023-05-12T12:51:46.169Z,16.99
2023-05-12T12:54:16.357Z,16.88
2023-05-12T12:56:44.482Z,16.99
2023-05-12T12:59:12.356Z,16.93
2023-05-12T13:01:39.493Z,17.00
2023-05-12T13:04:07.234Z,17.26
2023-05-12T13:06:34.728Z,17.06
2023-05-12T13:09:04.079Z,17.25
2023-05-12T13:11:35.008Z,16.90
2023-05-12T13:14:04.946Z,17.11
2023-05-12T13:16:34.636Z,17.07
2023-05-12T13:19:02.443Z,16.62
2023-05-12T13:21:29.663Z,17.01
2023-05-12T13:23:57.154Z,16.60
2023-05-12T13:26:24.127Z,16.76
2023-05-12T13:28:52.901Z,16.32
2023-05-12T13:31:22.257Z,16.19
2023-05-12T13:33:49.608Z,16.79
2023-05-12T13:36:16.718Z,16.40
2023-05-12T13:38:50.519Z,16.76
2023-05-12T13:41:17.616Z,16.74
2023-05-12T13:43:45.076Z,16.31
2023-05-12T13:46:13.502Z,16.38
2023-05-12T13:48:40.778Z,16.73
2023-05-12T13:51:07.821Z,16.33
2023-05-12T13:53:38.512Z,16.38
2023-05-12T13:56:06.358Z,16.33
2023-05-12T13:58:33.803Z,16.30
2023-05-12T14:01:02.359Z,16.50
2023-05-12T14:03:31.235Z,15.85
2023-05-12T14:05:58.502Z,15.88
2023-05-12T14:08:25.950Z,15.85
2023-05-12T14:10:53.059Z,15.47
2023-05-12T14:13:20.654Z,15.43
2023-05-12T14:15:49.787Z,15.43
2023-05-12T14:18:17.818Z,15.72
2023-05-12T14:20:46.684Z,15.64
2023-05-12T14:23:13.837Z,15.63
2023-05-12T14:25:40.919Z,15.73
2023-05-12T14:28:10.001Z,15.76
2023-05-12T14:30:37.484Z,15.73
2023-05-12T14:33:05.110Z,15.78
2023-05-12T14:35:34.738Z,15.89
2023-05-12T14:38:03.522Z,15.91
2023-05-12T14:40:30.758Z,15.92
2023-05-12T14:43:00.081Z,16.01
2023-05-12T14:45:28.389Z,15.51
2023-05-12T14:47:55.837Z,15.63
2023-05-12T14:50:23.304Z,15.17
2023-05-12T14:52:53.339Z,15.32
2023-05-12T14:55:22.163Z,15.48
2023-05-12T14:57:49.683Z,15.45
2023-05-12T15:00:18.423Z,15.23
2023-05-12T15:02:45.972Z,14.39
2023-05-12T15:05:13.650Z,14.21
2023-05-12T15:07:41.381Z,14.32
2023-05-12T15:10:09.363Z,14.30
2023-05-12T15:12:38.119Z,13.97
2023-05-12T15:15:08.352Z,14.28
2023-05-12T15:17:35.737Z,14.24
2023-05-12T15:20:03.803Z,14.23
2023-05-12T15:22:31.624Z,13.78
2023-05-12T15:24:58.969Z,13.79
2023-05-12T15:27:26.507Z,13.58
2023-05-12T15:29:54.877Z,13.72
2023-05-12T15:32:22.288Z,14.08
2023-05-12T15:34:49.596Z,14.08
2023-05-12T15:37:17.311Z,13.54
2023-05-12T15:39:44.563Z,13.88
2023-05-12T15:42:12.600Z,13.25
2023-05-12T15:44:41.578Z,13.34
2023-05-12T15:47:10.836Z,13.32
2023-05-12T15:49:37.582Z,13.91
2023-05-12T15:52:05.391Z,13.91
2023-05-12T15:54:32.425Z,13.88
2023-05-12T15:56:59.812Z,13.39
2023-05-12T15:59:28.351Z,13.45
2023-05-12T16:01:56.268Z,13.88
2023-05-12T16:04:25.457Z,13.34
2023-05-12T16:06:52.712Z,13.86
2023-05-12T16:09:20.454Z,13.47
2023-05-12T16:11:48.926Z,13.33
2023-05-12T16:14:16.178Z,13.51
2023-05-12T16:16:48.153Z,13.36
2023-05-12T16:19:15.620Z,13.68
2023-05-12T16:21:44.608Z,13.01
2023-05-12T16:24:12.907Z,13.81
2023-05-12T16:26:41.267Z,13.89
2023-05-12T16:29:08.453Z,13.96
2023-05-12T16:31:36.498Z,13.55
2023-05-12T16:34:03.536Z,13.53
2023-05-12T16:36:32.144Z,13.39
2023-05-12T16:39:00.669Z,13.51
2023-05-12T16:41:28.778Z,13.50
2023-05-12T16:43:56.468Z,13.99
2023-05-12T16:46:24.345Z,13.29
2023-05-12T16:48:51.535Z,13.47
2023-05-12T16:51:18.802Z,13.44
2023-05-12T16:53:46.257Z,13.38
2023-05-12T16:56:14.895Z,13.45
2023-05-12T16:58:42.436Z,13.47
2023-05-12T17:01:09.829Z,13.55
2023-05-12T17:03:37.090Z,13.50
2023-05-12T17:06:05.090Z,13.78
2023-05-12T17:08:35.419Z,13.50
2023-05-12T17:11:04.404Z,13.52
2023-05-12T17:13:35.813Z,13.32
2023-05-12T17:16:03.284Z,13.49
2023-05-12T17:18:30.583Z,13.53
2023-05-12T17:20:58.968Z,13.41
2023-05-12T17:23:26.916Z,13.95
2023-05-12T17:25:54.576Z,13.71
2023-05-12T17:28:22.158Z,13.53
2023-05-12T17:30:51.575Z,13.58
2023-05-12T17:33:18.602Z,14.01
2023-05-12T17:35:57.156Z,14.07
2023-05-12T17:38:33.547Z,14.06
2023-05-12T17:41:00.912Z,14.06
2023-05-12T17:43:29.689Z,13.96
2023-05-12T17:45:58.053Z,14.03
2023-05-12T17:48:26.437Z,13.82
2023-05-12T17:50:53.776Z,13.43
2023-05-12T17:53:20.883Z,13.35
2023-05-12T17:55:48.556Z,13.28
2023-05-12T17:58:15.699Z,13.67
2023-05-12T18:00:44.810Z,13.40
2023-05-12T18:03:15.359Z,13.10
2023-05-12T18:05:45.990Z,13.14
2023-05-12T18:08:13.032Z,13.48
2023-05-12T18:10:45.620Z,13.51
2023-05-12T18:13:16.057Z,13.58
2023-05-12T18:15:43.799Z,13.66
2023-05-12T18:18:14.564Z,13.21
2023-05-12T18:20:43.371Z,13.22
2023-05-12T18:23:10.421Z,13.25
2023-05-12T18:25:38.081Z,13.27
2023-05-12T18:28:08.851Z,13.65
2023-05-12T18:30:42.245Z,13.67
2023-05-12T18:33:10.087Z,13.42
2023-05-12T18:35:38.450Z,12.82
2023-05-12T18:38:07.507Z,13.16
2023-05-12T18:40:38.417Z,13.13
2023-05-12T18:43:05.944Z,13.14
2023-05-12T18:45:35.501Z,13.66
2023-05-12T18:48:02.547Z,13.65
2023-05-12T18:50:30.556Z,13.35
2023-05-12T18:52:58.064Z,13.00
2023-05-12T18:55:26.866Z,13.34
2023-05-12T18:57:54.115Z,12.83
2023-05-12T19:00:26.027Z,13.36
2023-05-12T19:02:53.451Z,12.99
2023-05-12T19:05:21.387Z,12.87
2023-05-12T19:07:48.824Z,12.97
2023-05-12T19:10:16.377Z,12.98
2023-05-12T19:12:45.050Z,12.79
2023-05-12T19:15:25.754Z,13.22
2023-05-12T19:17:53.466Z,13.28
2023-05-12T19:20:20.852Z,13.06
2023-05-12T19:22:49.202Z,13.34
2023-05-12T19:25:19.012Z,13.01
2023-05-12T19:27:47.976Z,12.82
2023-05-12T19:30:17.653Z,13.19
2023-05-12T19:32:46.263Z,12.96
2023-05-12T19:35:14.293Z,13.07
2023-05-12T19:37:41.552Z,12.58
2023-05-12T19:40:10.249Z,12.97
2023-05-12T19:42:38.154Z,12.56
2023-05-12T19:45:13.447Z,12.81
2023-05-12T19:47:40.669Z,12.53
2023-05-12T19:50:09.155Z,12.93
2023-05-12T19:52:37.361Z,12.92
2023-05-12T19:55:05.787Z,12.20
2023-05-12T19:57:32.865Z,12.90
2023-05-12T20:00:00.194Z,12.42
2023-05-12T20:02:31.019Z,12.81
2023-05-12T20:05:00.460Z,12.27
2023-05-12T20:07:27.543Z,12.83
2023-05-12T20:09:55.410Z,12.76
2023-05-12T20:12:22.751Z,12.85
2023-05-12T20:14:50.117Z,12.49
2023-05-12T20:17:17.392Z,12.42
2023-05-12T20:19:46.271Z,12.47
2023-05-12T20:22:13.499Z,12.83
2023-05-12T20:24:41.188Z,12.28
2023-05-12T20:27:09.569Z,12.19
2023-05-12T20:29:37.054Z,12.71
2023-05-12T20:32:04.789Z,12.30
2023-05-12T20:34:32.125Z,12.16
2023-05-12T20:37:01.082Z,12.39
2023-05-12T20:39:29.188Z,12.00
2023-05-12T20:41:56.409Z,12.13
2023-05-12T20:44:26.442Z,12.18
2023-05-12T20:46:53.702Z,12.10
2023-05-12T20:49:21.467Z,12.18
2023-05-12T20:51:48.412Z,12.12
2023-05-12T20:54:17.070Z,12.25
2023-05-12T20:56:44.157Z,12.21
2023-05-12T20:59:11.492Z,12.16
2023-05-12T21:01:39.084Z,12.58
2023-05-12T21:04:09.525Z,12.13
2023-05-12T21:06:37.126Z,11.96
2023-05-12T21:09:05.047Z,12.01
2023-05-12T21:11:33.536Z,12.01
2023-05-12T21:14:01.476Z,12.05
2023-05-12T21:16:28.515Z,12.56
2023-05-12T21:18:56.243Z,12.09
2023-05-12T21:21:23.539Z,12.49
2023-05-12T21:23:51.276Z,12.45
2023-05-12T21:26:18.206Z,11.95
2023-05-12T21:28:47.102Z,12.04
2023-05-12T21:31:14.040Z,12.43
2023-05-12T21:33:41.959Z,11.32
2023-05-12T21:36:09.025Z,11.97
2023-05-12T21:38:36.452Z,11.94
2023-05-12T21:41:03.658Z,11.99
2023-05-12T21:43:30.948Z,11.98
2023-05-12T21:46:03.621Z,12.43
2023-05-12T21:48:31.963Z,12.10
2023-05-12T21:51:00.032Z,12.01
2023-05-12T21:53:27.663Z,12.05
2023-05-12T21:55:55.460Z,11.97
2023-05-12T21:58:23.769Z,12.39
2023-05-12T22:00:51.280Z,11.91
2023-05-12T22:03:21.841Z,12.29
2023-05-12T22:05:49.068Z,11.89
2023-05-12T22:08:16.357Z,11.82
2023-05-12T22:10:43.381Z,11.82
2023-05-12T22:13:10.784Z,11.83
2023-05-12T22:15:38.282Z,11.82
2023-05-12T22:18:05.760Z,11.89
2023-05-12T22:20:34.069Z,11.96
2023-05-12T22:23:01.619Z,11.95
2023-05-12T22:25:28.722Z,11.95
2023-05-12T22:27:55.965Z,12.05
2023-05-12T22:30:23.276Z,11.88
2023-05-12T22:32:51.412Z,12.43
2023-05-12T22:35:18.551Z,11.95
2023-05-12T22:37:47.180Z,11.94
2023-05-12T22:40:14.249Z,12.35
2023-05-12T22:42:41.726Z,11.80
2023-05-12T22:45:09.601Z,11.85
2023-05-12T22:47:37.070Z,11.81
2023-05-12T22:50:04.391Z,11.77
2023-05-12T22:52:32.046Z,11.75
2023-05-12T22:55:00.910Z,12.12
2023-05-12T22:57:28.247Z,11.86
2023-05-12T22:59:55.244Z,12.05
2023-05-12T23:02:22.676Z,11.41
2023-05-12T23:04:49.734Z,12.08
2023-05-12T23:07:17.010Z,12.07
2023-05-12T23:09:44.139Z,11.58
2023-05-12T23:12:12.776Z,11.44
2023-05-12T23:14:39.845Z,11.40
2023-05-12T23:17:07.347Z,11.43
2023-05-12T23:19:34.353Z,11.51
2023-05-12T23:22:01.660Z,11.52
2023-05-12T23:24:28.686Z,12.00
2023-05-12T23:26:56.194Z,11.57
2023-05-12T23:29:24.587Z,11.83
2023-05-12T23:31:51.891Z,11.40
2023-05-12T23:34:19.015Z,11.25
2023-05-12T23:36:46.334Z,11.84
2023-05-12T23:39:13.734Z,11.31
2023-05-12T23:41:41.176Z,11.27
2023-05-12T23:44:08.325Z,11.83
2023-05-12T23:46:37.237Z,11.41
2023-05-12T23:49:04.722Z,11.41
2023-05-12T23:51:32.689Z,11.47
2023-05-12T23:53:59.723Z,11.49
2023-05-12T23:56:27.040Z,11.92
2023-05-12T23:58:54.027Z,11.81
